Date,TemperatureHighF,TemperatureAvgF,TemperatureLowF,DewpointHighF,DewpointAvgF,DewpointLowF,HumidityHigh,HumidityAvg,HumidityLow,PressureMaxIn,PressureMinIn,WindSpeedMaxMPH,WindSpeedAvgMPH,GustSpeedMaxMPH,PrecipitationSumIn
2013-1-1,47.1,44.7,41.4,46.4,39.8,22.8,98,85,46,30.05,29.87,11,2,23,0.58
2013-1-2,45.3,41.5,37.8,44.6,38.5,35.1,100,89,79,30.09,29.83,29,6,30,0.10
2013-1-3,38.1,35.5,29.8,37.6,33.2,24.3,99,92,76,30.22,30.03,18,2,25,0.02
2013-1-4,42.1,32.6,27.1,24.6,21.3,18.0,81,64,44,30.31,30.21,27,8,34,0.00
2013-1-5,43.3,35.5,28.2,28.6,21.4,16.9,72,57,37,30.34,30.18,33,6,41,0.00
2013-1-6,51.1,40.5,35.2,41.5,33.6,27.5,87,77,64,30.18,29.99,20,2,31,0.01
2013-1-7,45.1,37.5,29.7,29.1,26.3,23.9,81,65,45,30.37,30.14,20,3,27,0.00
2013-1-8,46.6,39.8,32.0,44.1,33.7,27.7,95,79,65,30.40,30.32,5,0,7,0.00
2013-1-9,56.1,52.0,45.0,52.2,49.0,43.3,97,90,81,30.40,30.32,8,1,14,0.00
2013-1-10,57.7,54.6,48.7,51.4,49.4,46.6,93,83,75,30.41,30.27,16,2,20,0.02
2013-1-11,56.1,51.3,46.8,56.1,51.0,45.0,100,99,93,30.27,30.08,13,1,17,0.64
2013-1-12,65.7,59.7,55.9,62.6,57.8,55.2,100,94,81,30.10,29.99,16,1,26,0.02
2013-1-13,59.4,57.9,56.3,58.1,56.4,54.9,99,95,91,30.04,29.96,15,2,24,0.00
2013-1-14,59.7,57.3,47.3,59.7,57.1,46.6,100,99,96,30.03,29.96,26,3,32,0.89
2013-1-15,55.9,50.3,44.4,55.9,50.1,43.9,100,99,96,30.04,29.94,7,1,19,1.18
2013-1-16,54.0,49.5,45.3,53.6,49.3,45.1,100,99,95,29.96,29.89,6,0,10,0.43
2013-1-17,51.4,43.7,31.5,51.1,43.0,30.0,99,97,92,30.10,29.62,39,7,54,1.67
2013-1-18,44.8,34.1,27.3,30.0,25.3,22.1,94,71,45,30.47,30.10,19,1,24,0.14
2013-1-19,48.2,38.2,28.8,32.2,25.3,21.0,75,60,43,30.45,30.12,10,1,22,0.00
2013-1-20,57.6,46.4,38.1,34.5,26.0,15.8,55,45,34,30.12,29.99,24,3,26,0.00
2013-1-21,56.1,43.1,31.8,29.5,23.1,13.5,62,46,31,30.01,29.88,14,2,23,0.00
2013-1-22,33.1,26.4,19.6,13.6,6.4,-0.4,62,43,28,30.22,29.93,20,5,26,0.00
2013-1-23,43.3,32.4,21.9,26.6,15.4,0.7,67,50,38,30.31,30.04,11,-4,16,0.00
2013-1-24,37.6,33.2,20.5,29.8,15.6,-0.2,79,51,24,30.41,29.96,23,4,30,0.00
2013-1-25,35.6,23.3,18.9,34.5,15.8,1.8,98,75,45,30.43,30.08,11,1,22,0.01
2013-1-26,44.4,36.7,30.9,33.4,27.0,19.8,98,70,46,30.28,30.08,28,7,31,0.05
2013-1-27,36.5,32.0,26.1,29.1,26.0,21.6,90,79,64,30.48,30.28,17,2,28,0.00
2013-1-28,51.3,42.6,33.6,48.2,38.6,27.3,98,86,71,30.43,30.19,19,2,32,0.00
2013-1-29,63.3,56.6,49.3,55.9,51.0,41.7,97,82,64,30.20,29.93,15,2,28,0.02
2013-1-30,59.4,55.2,40.3,59.0,54.7,40.1,99,98,95,29.94,29.37,19,4,26,1.53
2013-1-31,42.6,35.6,28.9,40.1,24.6,18.9,100,66,41,29.99,29.46,23,2,32,0.02